Time;durP1;ratioP1;P1;durP2;ratioP2;P2;SDS_P1;SDS_P2;PMS_P1;PMS_P2;Temp;Humidity;BMP_temperature;BMP_pressure;BME280_temperature;BME280_humidity;BME280_pressure;Samples;Min_cycle;Max_cycle;Signal;HPM_P1;HPM_P2
2023/09/22 00:00:19;;;;;;;0.28;0.28;;;;;;;14.80;100.00;94743.41;1042363;28;20029;-76
2023/09/22 00:00:49;;;;;;;2.63;0.38;;;;;;;14.68;100.00;94720.28;1031190;28;20019;-76
2023/09/22 00:01:20;;;;;;;0.40;0.20;;;;;;;14.81;100.00;94745.72;1042820;28;20025;-77
2023/09/22 00:01:52;;;;;;;0.30;0.30;;;;;;;14.77;100.00;94733.47;1038658;28;20318;-77
2023/09/22 00:02:22;;;;;;;1.90;0.40;;;;;;;14.83;100.00;94742.78;1036338;28;20021;-77
2023/09/22 00:02:53;;;;;;;0.40;0.35;;;;;;;14.84;100.00;94745.09;1038486;28;20033;-76
2023/09/22 00:03:23;;;;;;;1.40;0.38;;;;;;;14.82;100.00;94746.50;1038653;28;20033;-77
2023/09/22 00:03:55;;;;;;;0.30;0.30;;;;;;;14.85;100.00;94756.44;1026759;28;20026;-76
2023/09/22 00:04:26;;;;;;;0.32;0.20;;;;;;;14.80;100.00;94752.09;1038570;28;20036;-77
2023/09/22 00:04:57;;;;;;;0.52;0.20;;;;;;;14.77;100.00;94734.25;1042592;28;20123;-77
2023/09/22 00:05:27;;;;;;;0.55;0.30;;;;;;;14.87;100.00;94750.84;1034542;28;20124;-77
2023/09/22 00:05:58;;;;;;;2.53;0.30;;;;;;;14.79;100.00;94742.66;1030498;28;20022;-77
2023/09/22 00:06:28;;;;;;;0.30;0.30;;;;;;;14.83;100.00;94740.16;1034451;28;20294;-77
2023/09/22 00:06:59;;;;;;;0.20;0.20;;;;;;;14.84;100.00;94744.34;1042871;28;20052;-77
2023/09/22 00:07:29;;;;;;;0.30;0.30;;;;;;;14.79;100.00;94733.94;1038603;28;20053;-77
2023/09/22 00:08:00;;;;;;;0.50;0.32;;;;;;;14.89;100.00;94751.31;1038658;28;20079;-77
2023/09/22 00:08:31;;;;;;;1.52;0.20;;;;;;;14.89;100.00;94757.38;1038719;28;20014;-75
2023/09/22 00:09:02;;;;;;;0.20;0.20;;;;;;;14.90;100.00;94755.53;1039039;28;20060;-77
2023/09/22 00:09:33;;;;;;;1.17;0.50;;;;;;;14.90;100.00;94750.22;1054021;28;20042;-77
2023/09/22 00:10:06;;;;;;;0.52;0.40;;;;;;;14.92;100.00;94748.03;1046918;28;20074;-77
2023/09/22 00:10:36;;;;;;;0.63;0.30;;;;;;;14.90;100.00;94753.66;1042030;28;20009;-76
2023/09/22 00:11:10;;;;;;;0.30;0.30;;;;;;;14.90;100.00;94748.38;1038178;28;20614;-75
2023/09/22 00:11:41;;;;;;;0.47;0.30;;;;;;;14.91;100.00;94751.78;1039466;28;20561;-75
2023/09/22 00:12:11;;;;;;;0.77;0.30;;;;;;;14.91;100.00;94749.13;1042741;28;20017;-77
2023/09/22 00:12:41;;;;;;;0.50;0.10;;;;;;;14.90;100.00;94748.38;1034908;28;20371;-76
2023/09/22 00:13:13;;;;;;;0.63;0.47;;;;;;;14.94;100.00;94753.78;1036905;28;20028;-76
2023/09/22 00:13:43;;;;;;;0.50;0.30;;;;;;;14.90;100.00;94747.59;1038890;28;20117;-76
2023/09/22 00:14:14;;;;;;;0.75;0.22;;;;;;;14.87;100.00;94737.66;1034710;28;20032;-77
2023/09/22 00:14:45;;;;;;;0.47;0.40;;;;;;;14.84;100.00;94733.78;1035986;28;20022;-76
2023/09/22 00:15:15;;;;;;;1.00;0.55;;;;;;;14.91;100.00;94746.50;1030507;28;20027;-77
2023/09/22 00:15:46;;;;;;;0.25;0.20;;;;;;;14.91;100.00;94743.84;1030943;28;20026;-77
2023/09/22 00:16:16;;;;;;;0.45;0.20;;;;;;;14.84;100.00;94739.81;1034553;28;20025;-76
2023/09/22 00:16:47;;;;;;;0.40;0.30;;;;;;;14.91;100.00;94749.91;1034714;28;20631;-76
2023/09/22 00:17:17;;;;;;;0.20;0.20;;;;;;;14.83;100.00;94737.50;1042754;28;20029;-77
2023/09/22 00:17:48;;;;;;;0.80;0.40;;;;;;;14.90;100.00;94751.00;1042769;28;20397;-76
2023/09/22 00:18:18;;;;;;;2.00;0.30;;;;;;;14.89;100.00;94752.09;1034529;28;20105;-77
2023/09/22 00:18:49;;;;;;;1.98;0.28;;;;;;;14.92;100.00;94758.59;1034497;28;20033;-76
2023/09/22 00:19:19;;;;;;;0.65;0.40;;;;;;;14.88;100.00;94755.03;1034599;28;20027;-75
2023/09/22 00:19:50;;;;;;;0.30;0.30;;;;;;;14.87;100.00;94754.28;1036181;28;20030;-76
2023/09/22 00:20:20;;;;;;;0.45;0.45;;;;;;;14.89;100.00;94759.22;1042345;28;20036;-76
2023/09/22 00:20:51;;;;;;;0.32;0.30;;;;;;;14.80;100.00;94746.81;1046735;28;20016;-77
2023/09/22 00:21:21;;;;;;;0.45;0.40;;;;;;;14.85;100.00;94751.97;1046591;28;20467;-77
2023/09/22 00:21:55;;;;;;;0.22;0.20;;;;;;;14.84;100.00;94755.66;1042678;28;20033;-77
2023/09/22 00:22:26;;;;;;;0.28;0.25;;;;;;;14.83;100.00;94759.41;1039234;28;20423;-77
2023/09/22 00:22:56;;;;;;;0.30;0.20;;;;;;;14.85;100.00;94761.72;1034494;28;20022;-76
2023/09/22 00:23:27;;;;;;;0.30;0.28;;;;;;;14.84;100.00;94757.53;1033768;28;20022;-79
2023/09/22 00:23:58;;;;;;;0.65;0.30;;;;;;;14.82;100.00;94760.50;1034682;28;20033;-78
2023/09/22 00:24:28;;;;;;;0.73;0.40;;;;;;;14.75;100.00;94749.63;1034989;28;20032;-76
2023/09/22 00:24:59;;;;;;;2.40;0.30;;;;;;;14.78;100.00;94756.91;1038827;28;20030;-76
2023/09/22 00:25:29;;;;;;;0.55;0.20;;;;;;;14.69;100.00;94748.25;1050959;28;20016;-76
2023/09/22 00:26:01;;;;;;;0.45;0.20;;;;;;;14.78;100.00;94762.19;1051310;28;20028;-76
2023/09/22 00:26:32;;;;;;;0.30;0.30;;;;;;;14.76;100.00;94764.41;1042595;28;20017;-76
2023/09/22 00:27:03;;;;;;;0.80;0.40;;;;;;;14.74;100.00;94771.06;1038217;28;20504;-77
2023/09/22 00:27:33;;;;;;;0.20;0.20;;;;;;;14.68;100.00;94751.97;1034547;28;20014;-75
2023/09/22 00:28:04;;;;;;;0.60;0.20;;;;;;;14.76;100.00;94764.41;1034996;28;20018;-78
2023/09/22 00:28:34;;;;;;;1.90;0.68;;;;;;;14.72;100.00;94763.47;1038403;28;20029;-76
2023/09/22 00:29:05;;;;;;;0.60;0.30;;;;;;;14.73;100.00;94758.97;1038955;28;20024;-76
2023/09/22 00:29:36;;;;;;;0.55;0.38;;;;;;;14.65;100.00;94749.94;1042711;28;20025;-77
2023/09/22 00:30:09;;;;;;;0.15;0.15;;;;;;;14.71;100.00;94756.63;1038553;28;20013;-75
2023/09/22 00:30:40;;;;;;;1.20;0.30;;;;;;;14.69;100.00;94756.16;1029938;28;20422;-78
2023/09/22 00:31:10;;;;;;;0.20;0.20;;;;;;;14.64;100.00;94732.56;1038604;28;20627;-76
2023/09/22 00:31:41;;;;;;;0.35;0.30;;;;;;;14.66;100.00;94746.22;1034292;28;20038;-76
2023/09/22 00:32:11;;;;;;;0.57;0.22;;;;;;;14.59;100.00;94736.13;1034473;28;20013;-76
2023/09/22 00:32:42;;;;;;;0.38;0.28;;;;;;;14.64;100.00;94739.69;1042684;28;20021;-77
2023/09/22 00:33:12;;;;;;;0.20;0.20;;;;;;;14.64;100.00;94740.47;1042690;28;20017;-75
2023/09/22 00:33:43;;;;;;;0.80;0.40;;;;;;;14.64;100.00;94735.19;1038432;28;20053;-76
2023/09/22 00:34:13;;;;;;;0.20;0.20;;;;;;;14.65;100.00;94736.75;1038739;28;20140;-76
2023/09/22 00:34:44;;;;;;;1.17;0.43;;;;;;;14.57;100.00;94724.34;1037727;28;20534;-78
2023/09/22 00:35:14;;;;;;;0.20;0.20;;;;;;;14.57;100.00;94726.97;1038552;28;20029;-75
2023/09/22 00:35:45;;;;;;;0.50;0.50;;;;;;;14.61;100.00;94735.81;1034467;28;20043;-78
2023/09/22 00:36:16;;;;;;;0.88;0.30;;;;;;;14.59;100.00;94728.22;1030390;28;20121;-76
2023/09/22 00:36:48;;;;;;;1.85;0.30;;;;;;;14.57;100.00;94724.34;1034358;28;20116;-77
2023/09/22 00:37:19;;;;;;;1.73;0.20;;;;;;;14.58;100.00;94725.88;1038784;28;20112;-75
2023/09/22 00:37:50;;;;;;;0.52;0.20;;;;;;;14.57;100.00;94724.34;1046685;28;20029;-77
2023/09/22 00:38:20;;;;;;;0.25;0.20;;;;;;;14.54;100.00;94717.03;1038593;28;20062;-74
2023/09/22 00:38:51;;;;;;;0.20;0.20;;;;;;;14.59;100.00;94738.78;1030696;28;20026;-77
2023/09/22 00:39:22;;;;;;;0.30;0.30;;;;;;;14.56;100.00;94728.06;1038694;28;20033;-76
2023/09/22 00:39:54;;;;;;;0.28;0.20;;;;;;;14.57;100.00;94729.63;1042469;28;20098;-77
2023/09/22 00:40:24;;;;;;;0.80;0.40;;;;;;;14.57;100.00;94733.03;1035147;28;20014;-74
2023/09/22 00:40:54;;;;;;;0.40;0.40;;;;;;;14.47;100.00;94735.97;1026334;28;20085;-75
2023/09/22 00:41:25;;;;;;;0.73;0.68;;;;;;;14.51;100.00;94730.84;1034783;28;20084;-75
2023/09/22 00:41:56;;;;;;;1.05;0.40;;;;;;;14.55;100.00;94756.34;1034241;28;20026;-76
2023/09/22 00:42:27;;;;;;;0.47;0.30;;;;;;;14.55;100.00;94751.06;1034500;28;20032;-75
2023/09/22 00:43:09;;;;;;;0.40;0.25;;;;;;;14.53;100.00;94755.09;1034498;28;20052;-75
2023/09/22 00:43:39;;;;;;;0.30;0.30;;;;;;;14.55;100.00;94760.81;1038394;28;20531;-76
2023/09/22 00:44:09;;;;;;;0.30;0.30;;;;;;;14.52;100.00;94758.81;1030277;28;20026;-75
2023/09/22 00:44:40;;;;;;;1.75;0.52;;;;;;;14.50;100.00;94763.59;1032005;28;20867;-76
2023/09/22 00:45:10;;;;;;;0.20;0.20;;;;;;;14.44;100.00;94759.56;1030407;28;20018;-74
2023/09/22 00:45:42;;;;;;;0.43;0.30;;;;;;;14.42;100.00;94759.09;1038635;28;20075;-75
2023/09/22 00:46:13;;;;;;;0.88;0.45;;;;;;;14.42;100.00;94756.44;1034419;28;20025;-75
2023/09/22 00:46:44;;;;;;;0.30;0.30;;;;;;;14.37;100.00;94747.59;1038654;28;20373;-75
2023/09/22 00:47:14;;;;;;;1.00;0.38;;;;;;;14.42;100.00;94759.88;1037659;28;20033;-76
2023/09/22 00:47:45;;;;;;;0.60;0.22;;;;;;;14.39;100.00;94753.34;1030412;28;20033;-77
2023/09/22 00:48:28;;;;;;;0.43;0.40;;;;;;;14.40;100.00;94756.75;1026321;28;20014;-76
2023/09/22 00:48:58;;;;;;;0.40;0.40;;;;;;;14.41;100.00;94758.31;1029967;28;20776;-77
2023/09/22 00:49:29;;;;;;;0.52;0.40;;;;;;;14.39;100.00;94761.28;1030436;28;20054;-74
2023/09/22 00:49:59;;;;;;;0.43;0.30;;;;;;;14.38;100.00;94759.72;1032232;28;20120;-76
2023/09/22 00:50:30;;;;;;;0.40;0.20;;;;;;;14.35;100.00;94759.53;1040035;28;20025;-76
2023/09/22 00:51:03;;;;;;;0.30;0.28;;;;;;;14.33;100.00;94762.50;1042740;28;20025;-75
2023/09/22 00:51:34;;;;;;;0.63;0.50;;;;;;;14.32;100.00;94758.31;1038640;28;20096;-75
2023/09/22 00:52:04;;;;;;;0.35;0.20;;;;;;;14.31;100.00;94759.38;1039619;28;20291;-75
2023/09/22 00:52:35;;;;;;;0.28;0.28;;;;;;;14.26;100.00;94746.38;1034959;28;20017;-74
2023/09/22 00:53:05;;;;;;;0.80;0.52;;;;;;;14.25;100.00;94757.22;1035031;28;20030;-75
2023/09/22 00:53:36;;;;;;;0.22;0.22;;;;;;;14.27;100.00;94760.31;1026465;28;20441;-74
2023/09/22 00:54:07;;;;;;;0.95;0.50;;;;;;;14.22;100.00;94750.72;1034065;28;20071;-75
2023/09/22 00:54:37;;;;;;;0.38;0.22;;;;;;;14.18;100.00;94744.47;1030242;28;20030;-74
2023/09/22 00:55:08;;;;;;;1.98;0.30;;;;;;;14.22;100.00;94755.19;1038589;28;20196;-75
2023/09/22 00:55:38;;;;;;;0.40;0.30;;;;;;;14.21;100.00;94757.06;1040109;28;20025;-76
2023/09/22 00:56:09;;;;;;;0.40;0.28;;;;;;;14.19;100.00;94753.97;1034237;28;20040;-74
2023/09/22 00:56:40;;;;;;;0.30;0.30;;;;;;;14.19;100.00;94761.09;1038398;28;20030;-75
2023/09/22 00:57:10;;;;;;;0.93;0.30;;;;;;;14.11;100.00;94741.53;1046723;28;20029;-75
2023/09/22 00:57:41;;;;;;;0.20;0.17;;;;;;;14.14;100.00;94752.25;1038814;28;20068;-75
2023/09/22 00:58:12;;;;;;;0.35;0.28;;;;;;;14.12;100.00;94751.78;1038296;28;20033;-76
2023/09/22 00:58:42;;;;;;;0.22;0.20;;;;;;;14.12;100.00;94741.22;1034079;28;20026;-76
2023/09/22 00:59:14;;;;;;;0.82;0.30;;;;;;;14.08;100.00;94739.50;1038445;28;20040;-76
2023/09/22 00:59:44;;;;;;;1.10;0.30;;;;;;;14.05;100.00;94740.13;1030547;28;20041;-76
2023/09/22 01:00:16;;;;;;;0.13;0.10;;;;;;;14.02;100.00;94730.97;1037957;28;20052;-76
2023/09/22 01:00:47;;;;;;;0.45;0.30;;;;;;;14.00;100.00;94735.00;1033027;28;20034;-75
2023/09/22 01:01:20;;;;;;;0.20;0.20;;;;;;;13.91;100.00;94719.94;1034593;28;20034;-76
2023/09/22 01:01:50;;;;;;;1.35;0.35;;;;;;;14.02;100.00;94736.25;1026322;28;20117;-76
2023/09/22 01:02:22;;;;;;;0.52;0.30;;;;;;;14.06;100.00;94736.41;1036097;28;20034;-75
2023/09/22 01:02:54;;;;;;;0.40;0.40;;;;;;;14.04;100.00;94738.56;1038368;28;20504;-76
2023/09/22 01:03:25;;;;;;;0.63;0.35;;;;;;;14.04;100.00;94736.72;1042829;28;20033;-74
2023/09/22 01:03:55;;;;;;;1.65;0.40;;;;;;;14.01;100.00;94739.19;1042655;28;20571;-74
2023/09/22 01:04:26;;;;;;;0.22;0.20;;;;;;;14.00;100.00;94735.00;1042197;28;20072;-74
2023/09/22 01:04:56;;;;;;;0.52;0.30;;;;;;;13.99;100.00;94736.09;1034282;28;20095;-74
2023/09/22 01:05:27;;;;;;;0.30;0.20;;;;;;;13.95;100.00;94729.88;1034536;28;20046;-74
2023/09/22 01:05:57;;;;;;;1.63;0.40;;;;;;;13.94;100.00;94733.59;1038508;28;20040;-74
2023/09/22 01:06:28;;;;;;;3.00;0.30;;;;;;;13.94;100.00;94728.31;1038516;28;20063;-74
2023/09/22 01:06:59;;;;;;;0.40;0.30;;;;;;;13.90;100.00;94728.94;1038654;28;20052;-75
2023/09/22 01:07:30;;;;;;;0.25;0.15;;;;;;;13.92;100.00;94736.56;1046652;28;20054;-74
2023/09/22 01:08:00;;;;;;;0.75;0.35;;;;;;;13.90;100.00;94731.56;1044934;28;20691;-75
2023/09/22 01:08:31;;;;;;;0.85;0.35;;;;;;;13.91;100.00;94738.38;1046523;28;20439;-74
2023/09/22 01:09:06;;;;;;;0.30;0.28;;;;;;;13.91;100.00;94738.38;1046615;28;20032;-76
2023/09/22 01:09:41;;;;;;;0.30;0.28;;;;;;;13.89;100.00;94732.66;1043007;28;20450;-75
2023/09/22 01:10:12;;;;;;;0.52;0.30;;;;;;;13.91;100.00;94741.03;1037826;28;20028;-74
2023/09/22 01:10:43;;;;;;;0.28;0.22;;;;;;;13.87;100.00;94729.56;1037144;28;20405;-76
2023/09/22 01:11:13;;;;;;;1.75;0.32;;;;;;;13.91;100.00;94743.66;1035891;28;20038;-75
2023/09/22 01:11:44;;;;;;;0.77;0.40;;;;;;;13.91;100.00;94743.66;1039442;28;20033;-74
2023/09/22 01:12:15;;;;;;;0.32;0.32;;;;;;;13.91;100.00;94741.03;1042585;28;20033;-75
2023/09/22 01:12:45;;;;;;;0.30;0.30;;;;;;;13.90;100.00;94739.47;1038574;28;20042;-77
2023/09/22 01:13:16;;;;;;;0.32;0.32;;;;;;;13.92;100.00;94741.81;1038188;28;20031;-76
2023/09/22 01:13:46;;;;;;;0.70;0.50;;;;;;;13.90;100.00;94739.47;1046804;28;20036;-76
2023/09/22 01:14:17;;;;;;;0.57;0.28;;;;;;;13.93;100.00;94737.31;1042455;28;20477;-76
2023/09/22 01:14:47;;;;;;;0.50;0.45;;;;;;;13.91;100.00;94746.31;1042406;28;20049;-76
2023/09/22 01:15:17;;;;;;;0.20;0.20;;;;;;;13.85;100.00;94734.38;1038450;28;20040;-75
2023/09/22 01:15:48;;;;;;;0.40;0.30;;;;;;;13.89;100.00;94743.22;1034520;28;20537;-74
2023/09/22 01:16:19;;;;;;;0.40;0.30;;;;;;;13.86;100.00;94740.41;1034019;28;20029;-75
2023/09/22 01:16:51;;;;;;;1.10;0.60;;;;;;;13.91;100.00;94746.31;1034366;28;20521;-74
2023/09/22 01:17:23;;;;;;;0.20;0.20;;;;;;;13.85;100.00;94738.88;1030134;28;20125;-75
2023/09/22 01:17:53;;;;;;;0.32;0.32;;;;;;;13.87;100.00;94748.00;1034297;28;20557;-74
2023/09/22 01:18:24;;;;;;;0.32;0.30;;;;;;;13.89;100.00;94742.44;1034403;28;20037;-75
2023/09/22 01:18:54;;;;;;;1.67;0.50;;;;;;;13.88;100.00;94741.66;1038152;28;20037;-75
2023/09/22 01:19:25;;;;;;;1.60;0.28;;;;;;;13.85;100.00;94742.28;1030844;28;20041;-75
2023/09/22 01:19:55;;;;;;;0.40;0.28;;;;;;;13.88;100.00;94752.22;1038234;28;20029;-75
2023/09/22 01:20:26;;;;;;;0.40;0.30;;;;;;;13.82;100.00;94742.13;1037928;28;20025;-75
2023/09/22 01:20:59;;;;;;;0.20;0.20;;;;;;;13.86;100.00;94749.09;1038288;28;20021;-74
2023/09/22 01:21:31;;;;;;;1.88;0.60;;;;;;;13.82;100.00;94742.13;1031490;28;20084;-75
2023/09/22 01:22:02;;;;;;;0.20;0.20;;;;;;;13.83;100.00;94741.81;1033055;28;20527;-75
2023/09/22 01:22:35;;;;;;;1.67;0.40;;;;;;;13.86;100.00;94748.31;1038069;28;20025;-76
2023/09/22 01:23:06;;;;;;;0.28;0.28;;;;;;;13.87;100.00;94745.38;1034291;28;20022;-75
2023/09/22 01:23:37;;;;;;;0.30;0.30;;;;;;;13.84;100.00;94751.25;1029859;28;20035;-75
2023/09/22 01:24:07;;;;;;;1.45;0.40;;;;;;;13.84;100.00;94751.25;1028080;28;20033;-76
2023/09/22 01:24:38;;;;;;;0.43;0.30;;;;;;;13.84;100.00;94756.53;1030766;28;20037;-75
2023/09/22 01:25:09;;;;;;;0.30;0.30;;;;;;;13.84;100.00;94761.81;1030385;28;20611;-74
2023/09/22 01:25:40;;;;;;;0.93;0.40;;;;;;;13.83;100.00;94752.34;1034769;28;20032;-76
2023/09/22 01:26:10;;;;;;;0.38;0.30;;;;;;;13.84;100.00;94751.25;1038323;28;20400;-74
2023/09/22 01:26:41;;;;;;;0.77;0.40;;;;;;;13.81;100.00;94751.88;1034455;28;20026;-76
2023/09/22 01:27:11;;;;;;;0.20;0.20;;;;;;;13.77;100.00;94744.88;1034597;28;20532;-76
2023/09/22 01:27:42;;;;;;;0.30;0.30;;;;;;;13.83;100.00;94744.44;1034432;28;20037;-76
2023/09/22 01:28:13;;;;;;;0.38;0.38;;;;;;;13.84;100.00;94745.22;1037720;28;20041;-76
2023/09/22 01:28:43;;;;;;;0.47;0.40;;;;;;;13.85;100.00;94741.50;1034697;28;20030;-76
2023/09/22 01:29:14;;;;;;;0.65;0.30;;;;;;;13.83;100.00;94744.44;1038709;28;20029;-75
2023/09/22 01:29:45;;;;;;;0.82;0.28;;;;;;;13.83;100.00;94741.03;1042499;28;20036;-77
2023/09/22 01:30:15;;;;;;;0.43;0.43;;;;;;;13.82;100.00;94737.63;1045350;28;20096;-76
2023/09/22 01:30:46;;;;;;;0.43;0.38;;;;;;;13.79;100.00;94729.56;1042803;28;20033;-76
2023/09/22 01:31:17;;;;;;;0.25;0.20;;;;;;;13.85;100.00;94741.50;1042691;28;20614;-77
2023/09/22 01:31:48;;;;;;;0.50;0.30;;;;;;;13.83;100.00;94739.16;1040276;28;20032;-74
2023/09/22 01:32:18;;;;;;;0.40;0.35;;;;;;;13.83;100.00;94744.44;1038556;28;20030;-74
2023/09/22 01:32:48;;;;;;;0.75;0.40;;;;;;;13.81;100.00;94743.19;1038640;28;20030;-74
2023/09/22 01:33:20;;;;;;;1.05;0.30;;;;;;;13.80;100.00;94742.41;1043151;28;20028;-76
2023/09/22 01:33:52;;;;;;;0.57;0.38;;;;;;;13.79;100.00;94753.28;1042699;28;20053;-76
2023/09/22 01:34:23;;;;;;;0.70;0.30;;;;;;;13.79;100.00;94753.28;1038471;28;20017;-74
2023/09/22 01:34:54;;;;;;;0.30;0.30;;;;;;;13.75;100.00;94747.84;1037070;28;20388;-77
2023/09/22 01:35:25;;;;;;;1.00;0.52;;;;;;;13.78;100.00;94752.50;1034434;28;20645;-75
2023/09/22 01:35:55;;;;;;;0.40;0.40;;;;;;;13.76;100.00;94748.63;1038450;28;20033;-77
2023/09/22 01:36:26;;;;;;;1.83;0.38;;;;;;;13.74;100.00;94746.28;1038519;28;20425;-76
2023/09/22 01:36:57;;;;;;;0.43;0.28;;;;;;;13.74;100.00;94746.28;1036999;28;20026;-76
2023/09/22 01:37:30;;;;;;;0.63;0.40;;;;;;;13.76;100.00;94752.03;1034658;28;20444;-75
2023/09/22 01:38:08;;;;;;;0.30;0.20;;;;;;;13.75;100.00;94752.31;1030085;28;20034;-75
2023/09/22 01:38:38;;;;;;;0.35;0.32;;;;;;;13.71;100.00;94748.75;1038392;28;20033;-76
2023/09/22 01:39:11;;;;;;;1.90;0.30;;;;;;;13.77;100.00;94758.06;1037604;28;20614;-75
2023/09/22 01:39:42;;;;;;;0.60;0.30;;;;;;;13.77;100.00;94745.66;1034179;28;20064;-77
2023/09/22 01:40:16;;;;;;;0.30;0.30;;;;;;;13.78;100.00;94751.72;1034095;28;20030;-75
2023/09/22 01:40:46;;;;;;;0.30;0.28;;;;;;;13.79;100.00;94751.41;1035304;28;20074;-76
2023/09/22 01:41:18;;;;;;;0.40;0.38;;;;;;;13.78;100.00;94752.50;1038903;28;20037;-77
2023/09/22 01:41:49;;;;;;;1.40;0.20;;;;;;;13.79;100.00;94745.38;1034330;28;20515;-75
2023/09/22 01:42:19;;;;;;;0.43;0.28;;;;;;;13.76;100.00;94744.13;1030360;28;20072;-76
2023/09/22 01:42:49;;;;;;;1.73;0.30;;;;;;;13.79;100.00;94750.66;1030370;28;20506;-76
2023/09/22 01:43:20;;;;;;;0.57;0.40;;;;;;;13.81;100.00;94751.88;1034559;28;20029;-75
2023/09/22 01:43:50;;;;;;;2.75;0.50;;;;;;;13.76;100.00;94744.13;1041749;28;20104;-76
2023/09/22 01:44:21;;;;;;;1.00;0.43;;;;;;;13.80;100.00;94750.31;1042535;28;20033;-76
2023/09/22 01:44:52;;;;;;;0.50;0.32;;;;;;;13.80;100.00;94752.97;1038402;28;20021;-76
2023/09/22 01:45:22;;;;;;;0.38;0.28;;;;;;;13.82;100.00;94763.22;1040408;28;20485;-76
2023/09/22 01:45:53;;;;;;;0.75;0.32;;;;;;;13.81;100.00;94757.13;1042713;28;20047;-75
2023/09/22 01:46:23;;;;;;;0.55;0.20;;;;;;;13.80;100.00;94766.16;1042567;28;20021;-77
2023/09/22 01:46:54;;;;;;;0.55;0.20;;;;;;;13.74;100.00;94756.81;1041843;28;20037;-77
2023/09/22 01:47:24;;;;;;;0.28;0.22;;;;;;;13.79;100.00;94761.97;1045110;28;20586;-76
2023/09/22 01:47:55;;;;;;;0.30;0.30;;;;;;;13.80;100.00;94771.41;1046736;28;20099;-77
2023/09/22 01:48:25;;;;;;;1.15;0.30;;;;;;;13.80;100.00;94775.91;1038274;28;20094;-76
2023/09/22 01:48:56;;;;;;;0.50;0.50;;;;;;;13.78;100.00;94775.44;1033225;28;20029;-77
2023/09/22 01:49:26;;;;;;;0.70;0.32;;;;;;;13.78;100.00;94778.06;1030316;28;20045;-76
2023/09/22 01:49:57;;;;;;;0.50;0.30;;;;;;;13.73;100.00;94771.09;1038312;28;20036;-78
2023/09/22 01:50:27;;;;;;;0.47;0.30;;;;;;;13.77;100.00;94787.84;1037631;28;20029;-78
2023/09/22 01:51:02;;;;;;;0.20;0.20;;;;;;;13.77;100.00;94787.84;1038561;28;20079;-77
2023/09/22 01:51:32;;;;;;;1.15;0.30;;;;;;;13.74;100.00;94782.41;1038436;28;20114;-77
2023/09/22 01:52:03;;;;;;;0.30;0.30;;;;;;;13.79;100.00;94790.97;1043252;28;20090;-77
2023/09/22 01:52:35;;;;;;;1.00;0.30;;;;;;;13.77;100.00;94782.56;1042423;28;20187;-78
2023/09/22 01:53:12;;;;;;;1.13;0.30;;;;;;;13.82;100.00;94795.63;1034745;28;20049;-76
2023/09/22 01:53:43;;;;;;;0.15;0.15;;;;;;;13.79;100.00;94785.69;1030900;28;20030;-77
2023/09/22 01:54:13;;;;;;;1.15;0.32;;;;;;;13.82;100.00;94785.09;1038552;28;20061;-77
2023/09/22 01:54:44;;;;;;;0.38;0.35;;;;;;;13.83;100.00;94789.25;1034303;28;20033;-77
2023/09/22 01:55:14;;;;;;;1.80;0.47;;;;;;;13.79;100.00;94780.41;1038382;28;20049;-77
2023/09/22 01:55:46;;;;;;;0.85;0.50;;;;;;;13.88;100.00;94789.13;1030282;28;20081;-76
2023/09/22 01:56:17;;;;;;;0.40;0.30;;;;;;;13.82;100.00;94787.72;1030528;28;20034;-76
2023/09/22 01:56:47;;;;;;;1.10;0.30;;;;;;;13.75;100.00;94774.22;1034152;28;20485;-76
2023/09/22 01:57:19;;;;;;;0.30;0.25;;;;;;;13.86;100.00;94791.28;1038266;28;20052;-77
2023/09/22 01:57:50;;;;;;;0.30;0.20;;;;;;;13.87;100.00;94786.78;1038751;28;20026;-77
2023/09/22 01:58:20;;;;;;;0.40;0.20;;;;;;;13.84;100.00;94787.41;1038873;28;20029;-76
2023/09/22 01:58:51;;;;;;;0.40;0.40;;;;;;;13.78;100.00;94773.59;1042886;28;20033;-77
2023/09/22 01:59:22;;;;;;;0.30;0.30;;;;;;;13.84;100.00;94784.75;1042675;28;20036;-77
2023/09/22 01:59:53;;;;;;;0.45;0.30;;;;;;;13.80;100.00;94778.56;1038197;28;20026;-77
2023/09/22 02:00:23;;;;;;;0.28;0.20;;;;;;;13.83;100.00;94786.63;1025831;28;20439;-77
2023/09/22 02:00:54;;;;;;;0.65;0.25;;;;;;;13.86;100.00;94780.75;1033766;28;20643;-77
2023/09/22 02:01:24;;;;;;;0.50;0.50;;;;;;;13.80;100.00;94776.69;1030419;28;20081;-76
2023/09/22 02:01:55;;;;;;;0.20;0.20;;;;;;;13.85;100.00;94786.34;1038533;28;20406;-77
2023/09/22 02:02:25;;;;;;;0.75;0.45;;;;;;;13.87;100.00;94778.88;1031945;28;20026;-78
2023/09/22 02:02:56;;;;;;;1.52;0.30;;;;;;;13.80;100.00;94774.06;1034339;28;20022;-77
2023/09/22 02:03:26;;;;;;;0.57;0.35;;;;;;;13.87;100.00;94782.28;1038420;28;20025;-77
2023/09/22 02:03:57;;;;;;;1.38;0.20;;;;;;;13.83;100.00;94768.16;1035229;28;20022;-77
2023/09/22 02:04:30;;;;;;;0.80;0.30;;;;;;;13.87;100.00;94773.59;1042520;28;20025;-77
2023/09/22 02:05:01;;;;;;;0.40;0.30;;;;;;;13.86;100.00;94770.19;1034887;28;20018;-77
2023/09/22 02:05:34;;;;;;;1.85;0.50;;;;;;;13.88;100.00;94773.31;1034266;28;20075;-77
2023/09/22 02:06:05;;;;;;;0.30;0.30;;;;;;;13.91;100.00;94779.81;1038590;28;20021;-77
2023/09/22 02:06:35;;;;;;;2.05;0.50;;;;;;;13.90;100.00;94771.13;1038340;28;20112;-77
2023/09/22 02:07:06;;;;;;;0.28;0.20;;;;;;;13.87;100.00;94777.00;1038465;28;20032;-77
2023/09/22 02:07:39;;;;;;;0.40;0.40;;;;;;;13.89;100.00;94774.88;1038585;28;20033;-77
2023/09/22 02:08:10;;;;;;;0.30;0.25;;;;;;;13.92;100.00;94784.03;1038849;28;20017;-77
2023/09/22 02:08:40;;;;;;;0.20;0.20;;;;;;;13.93;100.00;94779.53;1042571;28;20025;-77
2023/09/22 02:09:11;;;;;;;0.40;0.38;;;;;;;13.88;100.00;94781.22;1038348;28;20688;-77
2023/09/22 02:09:41;;;;;;;0.73;0.38;;;;;;;13.93;100.00;94790.06;1036322;28;20022;-77
2023/09/22 02:10:13;;;;;;;0.80;0.40;;;;;;;13.91;100.00;94785.88;1042154;28;20040;-78
2023/09/22 02:10:44;;;;;;;0.77;0.40;;;;;;;13.88;100.00;94788.34;1047043;28;20419;-77
2023/09/22 02:11:14;;;;;;;0.90;0.47;;;;;;;13.86;100.00;94780.75;1047957;28;20021;-78
2023/09/22 02:11:44;;;;;;;0.50;0.40;;;;;;;13.93;100.00;94790.06;1047257;28;20435;-78
2023/09/22 02:12:15;;;;;;;0.30;0.30;;;;;;;13.91;100.00;94793.78;1050847;28;20024;-78
2023/09/22 02:12:45;;;;;;;0.30;0.30;;;;;;;13.93;100.00;94792.72;1047257;28;20024;-77
2023/09/22 02:13:16;;;;;;;0.47;0.30;;;;;;;13.80;100.00;94776.69;1047749;28;20027;-77
2023/09/22 02:13:47;;;;;;;0.68;0.30;;;;;;;13.93;100.00;94804.03;1051396;28;20117;-78
2023/09/22 02:14:18;;;;;;;0.63;0.50;;;;;;;13.94;100.00;94802.16;1039244;28;20049;-78
2023/09/22 02:14:48;;;;;;;1.13;0.50;;;;;;;13.86;100.00;94790.53;1042931;28;20122;-77
2023/09/22 02:15:19;;;;;;;0.35;0.35;;;;;;;13.89;100.00;94797.81;1035346;28;20018;-77
2023/09/22 02:15:52;;;;;;;0.95;0.55;;;;;;;13.90;100.00;94796.72;1039071;28;20068;-76
2023/09/22 02:16:22;;;;;;;0.60;0.50;;;;;;;13.93;100.00;94800.63;1039249;28;20551;-77
2023/09/22 02:16:53;;;;;;;1.08;0.45;;;;;;;13.90;100.00;94796.72;1039033;28;20033;-78
2023/09/22 02:17:23;;;;;;;0.85;0.30;;;;;;;13.83;100.00;94797.19;1043294;28;20443;-77
2023/09/22 02:17:54;;;;;;;0.50;0.38;;;;;;;13.86;100.00;94793.16;1035011;28;20022;-76
2023/09/22 02:18:25;;;;;;;2.35;0.40;;;;;;;13.75;100.00;94773.41;1035378;28;20018;-75
2023/09/22 02:18:56;;;;;;;2.88;0.43;;;;;;;13.81;100.00;94783.50;1034781;28;20030;-77
2023/09/22 02:19:27;;;;;;;1.38;0.40;;;;;;;13.85;100.00;94796.88;1035353;28;20022;-77
2023/09/22 02:19:57;;;;;;;0.50;0.40;;;;;;;13.86;100.00;94793.16;1041825;28;20107;-78
2023/09/22 02:20:28;;;;;;;0.35;0.35;;;;;;;13.84;100.00;94790.03;1047199;28;20507;-76
2023/09/22 02:20:58;;;;;;;1.02;0.50;;;;;;;13.78;100.00;94775.44;1047059;28;20077;-76
2023/09/22 02:21:29;;;;;;;0.35;0.30;;;;;;;13.81;100.00;94788.78;1030784;28;20041;-76
2023/09/22 02:21:59;;;;;;;0.55;0.40;;;;;;;13.82;100.00;94782.44;1031032;28;20033;-77
2023/09/22 02:22:30;;;;;;;2.05;0.50;;;;;;;13.82;100.00;94774.53;1030393;28;20062;-76
2023/09/22 02:23:00;;;;;;;3.30;0.50;;;;;;;13.83;100.00;94775.31;1039497;28;20017;-73
2023/09/22 02:23:31;;;;;;;1.17;0.40;;;;;;;13.73;100.00;94762.41;1038803;28;20107;-74
2023/09/22 02:24:02;;;;;;;0.55;0.35;;;;;;;13.76;100.00;94769.72;1039216;28;20017;-75